sensor_id;sensor_type;location;lat;lon;timestamp;P1;durP1;ratioP1;P2;durP2;ratioP2
23336;SDS011;11840;45.414;12.372;2024-02-15T07:15:05;56.25;;;32.80;;
23336;SDS011;11840;45.414;12.372;2024-02-15T07:17:35;67.30;;;31.88;;
23336;SDS011;11840;45.414;12.372;2024-02-15T07:20:03;149.63;;;32.72;;
23336;SDS011;11840;45.414;12.372;2024-02-15T07:22:32;96.90;;;30.88;;
23336;SDS011;11840;45.414;12.372;2024-02-15T07:24:59;72.78;;;32.78;;
23336;SDS011;11840;45.414;12.372;2024-02-15T07:27:26;75.47;;;32.28;;
23336;SDS011;11840;45.414;12.372;2024-02-15T07:29:52;98.55;;;30.27;;
23336;SDS011;11840;45.414;12.372;2024-02-15T07:32:18;68.45;;;31.10;;
23336;SDS011;11840;45.414;12.372;2024-02-15T07:34:45;54.38;;;31.17;;
23336;SDS011;11840;45.414;12.372;2024-02-15T07:37:13;64.07;;;29.65;;
23336;SDS011;11840;45.414;12.372;2024-02-15T07:39:41;54.83;;;29.55;;
23336;SDS011;11840;45.414;12.372;2024-02-15T07:42:07;55.20;;;31.75;;
23336;SDS011;11840;45.414;12.372;2024-02-15T07:44:36;106.93;;;31.30;;
23336;SDS011;11840;45.414;12.372;2024-02-15T07:47:02;65.15;;;32.53;;
23336;SDS011;11840;45.414;12.372;2024-02-15T07:49:28;65.88;;;32.03;;
23336;SDS011;11840;45.414;12.372;2024-02-15T07:51:54;57.13;;;30.75;;
23336;SDS011;11840;45.414;12.372;2024-02-15T07:54:20;71.03;;;29.98;;
23336;SDS011;11840;45.414;12.372;2024-02-15T07:56:48;63.00;;;30.88;;
23336;SDS011;11840;45.414;12.372;2024-02-15T07:59:15;63.83;;;30.63;;
23336;SDS011;11840;45.414;12.372;2024-02-15T08:01:44;80.00;;;30.35;;
23336;SDS011;11840;45.414;12.372;2024-02-15T08:04:18;72.32;;;30.23;;
23336;SDS011;11840;45.414;12.372;2024-02-15T08:06:44;55.58;;;30.00;;
23336;SDS011;11840;45.414;12.372;2024-02-15T08:09:11;72.97;;;31.92;;
23336;SDS011;11840;45.414;12.372;2024-02-15T08:11:39;62.83;;;31.40;;
23336;SDS011;11840;45.414;12.372;2024-02-15T08:14:06;68.43;;;29.50;;
23336;SDS011;11840;45.414;12.372;2024-02-15T08:16:35;54.53;;;29.08;;
23336;SDS011;11840;45.414;12.372;2024-02-15T08:19:01;89.28;;;29.00;;
23336;SDS011;11840;45.414;12.372;2024-02-15T08:21:27;55.60;;;30.05;;
23336;SDS011;11840;45.414;12.372;2024-02-15T08:24:12;59.38;;;29.50;;
23336;SDS011;11840;45.414;12.372;2024-02-15T08:26:39;58.15;;;28.40;;
23336;SDS011;11840;45.414;12.372;2024-02-15T08:29:05;51.65;;;29.52;;
23336;SDS011;11840;45.414;12.372;2024-02-15T08:31:31;63.50;;;29.15;;
23336;SDS011;11840;45.414;12.372;2024-02-15T08:33:58;50.35;;;27.60;;
23336;SDS011;11840;45.414;12.372;2024-02-15T08:36:24;51.03;;;28.77;;
23336;SDS011;11840;45.414;12.372;2024-02-15T08:38:50;50.17;;;28.05;;
23336;SDS011;11840;45.414;12.372;2024-02-15T08:41:17;58.72;;;29.88;;
23336;SDS011;11840;45.414;12.372;2024-02-15T08:43:46;53.03;;;29.67;;
23336;SDS011;11840;45.414;12.372;2024-02-15T08:46:14;47.53;;;29.35;;
23336;SDS011;11840;45.414;12.372;2024-02-15T08:48:40;49.03;;;29.23;;
23336;SDS011;11840;45.414;12.372;2024-02-15T08:51:06;77.05;;;29.00;;
23336;SDS011;11840;45.414;12.372;2024-02-15T08:53:34;53.00;;;29.27;;
23336;SDS011;11840;45.414;12.372;2024-02-15T08:56:02;98.80;;;31.55;;
23336;SDS011;11840;45.414;12.372;2024-02-15T08:58:28;53.30;;;29.40;;
23336;SDS011;11840;45.414;12.372;2024-02-15T09:00:58;50.10;;;29.83;;
23336;SDS011;11840;45.414;12.372;2024-02-15T09:03:24;64.95;;;30.08;;
23336;SDS011;11840;45.414;12.372;2024-02-15T09:05:51;61.85;;;28.92;;
23336;SDS011;11840;45.414;12.372;2024-02-15T09:08:17;115.75;;;31.75;;
23336;SDS011;11840;45.414;12.372;2024-02-15T09:10:46;82.57;;;29.85;;
23336;SDS011;11840;45.414;12.372;2024-02-15T09:13:13;122.78;;;29.33;;
23336;SDS011;11840;45.414;12.372;2024-02-15T09:15:40;55.22;;;31.05;;
23336;SDS011;11840;45.414;12.372;2024-02-15T09:18:07;50.70;;;30.20;;
23336;SDS011;11840;45.414;12.372;2024-02-15T09:20:35;61.08;;;31.25;;
23336;SDS011;11840;45.414;12.372;2024-02-15T09:23:02;67.40;;;31.45;;
23336;SDS011;11840;45.414;12.372;2024-02-15T09:25:38;70.78;;;31.08;;
23336;SDS011;11840;45.414;12.372;2024-02-15T09:28:03;53.03;;;31.40;;
23336;SDS011;11840;45.414;12.372;2024-02-15T09:30:30;60.83;;;31.83;;
23336;SDS011;11840;45.414;12.372;2024-02-15T09:32:57;49.20;;;30.92;;
23336;SDS011;11840;45.414;12.372;2024-02-15T09:35:23;74.75;;;30.73;;
23336;SDS011;11840;45.414;12.372;2024-02-15T09:37:49;73.45;;;30.83;;
23336;SDS011;11840;45.414;12.372;2024-02-15T09:40:16;57.47;;;31.38;;
23336;SDS011;11840;45.414;12.372;2024-02-15T09:42:42;47.05;;;30.58;;
23336;SDS011;11840;45.414;12.372;2024-02-15T09:45:10;62.17;;;29.33;;
23336;SDS011;11840;45.414;12.372;2024-02-15T09:47:36;55.53;;;30.83;;
23336;SDS011;11840;45.414;12.372;2024-02-15T09:52:32;68.68;;;29.85;;
23336;SDS011;11840;45.414;12.372;2024-02-15T09:54:58;99.88;;;30.30;;
23336;SDS011;11840;45.414;12.372;2024-02-15T09:57:26;70.85;;;29.42;;
23336;SDS011;11840;45.414;12.372;2024-02-15T09:59:53;54.03;;;29.15;;
23336;SDS011;11840;45.414;12.372;2024-02-15T10:02:19;56.78;;;31.10;;
23336;SDS011;11840;45.414;12.372;2024-02-15T10:04:45;65.28;;;31.52;;
23336;SDS011;11840;45.414;12.372;2024-02-15T10:07:12;56.88;;;30.58;;
23336;SDS011;11840;45.414;12.372;2024-02-15T10:09:38;55.60;;;30.10;;
23336;SDS011;11840;45.414;12.372;2024-02-15T10:12:08;67.18;;;30.88;;
23336;SDS011;11840;45.414;12.372;2024-02-15T10:14:35;63.22;;;30.05;;
23336;SDS011;11840;45.414;12.372;2024-02-15T10:17:07;53.85;;;31.45;;
23336;SDS011;11840;45.414;12.372;2024-02-15T10:19:35;75.35;;;31.58;;
23336;SDS011;11840;45.414;12.372;2024-02-15T10:22:07;51.63;;;29.20;;
23336;SDS011;11840;45.414;12.372;2024-02-15T10:24:34;62.72;;;29.58;;
23336;SDS011;11840;45.414;12.372;2024-02-15T10:27:01;55.38;;;30.20;;
23336;SDS011;11840;45.414;12.372;2024-02-15T10:29:30;62.78;;;29.98;;
23336;SDS011;11840;45.414;12.372;2024-02-15T10:31:57;58.95;;;30.42;;
23336;SDS011;11840;45.414;12.372;2024-02-15T10:34:26;64.63;;;29.80;;
23336;SDS011;11840;45.414;12.372;2024-02-15T10:37:11;54.42;;;29.48;;
23336;SDS011;11840;45.414;12.372;2024-02-15T10:39:37;70.60;;;28.70;;
23336;SDS011;11840;45.414;12.372;2024-02-15T10:42:06;61.28;;;29.23;;
23336;SDS011;11840;45.414;12.372;2024-02-15T10:44:32;52.45;;;28.80;;
23336;SDS011;11840;45.414;12.372;2024-02-15T10:47:18;51.70;;;30.60;;
23336;SDS011;11840;45.414;12.372;2024-02-15T10:49:44;49.97;;;27.75;;
23336;SDS011;11840;45.414;12.372;2024-02-15T10:52:11;65.05;;;29.27;;
23336;SDS011;11840;45.414;12.372;2024-02-15T10:57:04;61.88;;;32.08;;
23336;SDS011;11840;45.414;12.372;2024-02-15T10:59:34;51.05;;;30.00;;
23336;SDS011;11840;45.414;12.372;2024-02-15T11:02:10;51.47;;;29.98;;
23336;SDS011;11840;45.414;12.372;2024-02-15T11:04:39;55.42;;;30.48;;
23336;SDS011;11840;45.414;12.372;2024-02-15T11:07:07;55.35;;;31.90;;
23336;SDS011;11840;45.414;12.372;2024-02-15T11:09:33;57.53;;;31.92;;
23336;SDS011;11840;45.414;12.372;2024-02-15T11:11:59;58.55;;;30.70;;
23336;SDS011;11840;45.414;12.372;2024-02-15T11:14:27;53.65;;;30.35;;
23336;SDS011;11840;45.414;12.372;2024-02-15T11:16:57;52.78;;;31.05;;
23336;SDS011;11840;45.414;12.372;2024-02-15T11:21:56;57.97;;;31.52;;
23336;SDS011;11840;45.414;12.372;2024-02-15T11:24:29;57.13;;;31.75;;
23336;SDS011;11840;45.414;12.372;2024-02-15T11:26:58;54.75;;;30.02;;
23336;SDS011;11840;45.414;12.372;2024-02-15T11:32:33;49.00;;;28.00;;
23336;SDS011;11840;45.414;12.372;2024-02-15T11:35:02;55.17;;;29.67;;
23336;SDS011;11840;45.414;12.372;2024-02-15T11:43:08;57.67;;;28.90;;
23336;SDS011;11840;45.414;12.372;2024-02-15T11:45:34;47.75;;;25.80;;
23336;SDS011;11840;45.414;12.372;2024-02-15T11:48:10;50.72;;;28.13;;
23336;SDS011;11840;45.414;12.372;2024-02-15T11:50:36;48.55;;;27.45;;
23336;SDS011;11840;45.414;12.372;2024-02-15T11:53:04;58.45;;;27.00;;
23336;SDS011;11840;45.414;12.372;2024-02-15T11:55:32;55.05;;;25.35;;
23336;SDS011;11840;45.414;12.372;2024-02-15T11:57:58;51.78;;;26.50;;
23336;SDS011;11840;45.414;12.372;2024-02-15T12:03:27;51.22;;;26.90;;
23336;SDS011;11840;45.414;12.372;2024-02-15T12:06:12;49.03;;;26.58;;
23336;SDS011;11840;45.414;12.372;2024-02-15T12:09:00;49.15;;;27.38;;
23336;SDS011;11840;45.414;12.372;2024-02-15T12:11:44;52.78;;;26.77;;
23336;SDS011;11840;45.414;12.372;2024-02-15T12:14:29;53.63;;;26.75;;
23336;SDS011;11840;45.414;12.372;2024-02-15T12:17:13;57.05;;;27.33;;
23336;SDS011;11840;45.414;12.372;2024-02-15T12:20:02;56.10;;;28.58;;
23336;SDS011;11840;45.414;12.372;2024-02-15T12:22:35;54.28;;;29.40;;
23336;SDS011;11840;45.414;12.372;2024-02-15T12:25:03;56.72;;;27.73;;
23336;SDS011;11840;45.414;12.372;2024-02-15T12:27:41;59.40;;;28.67;;
23336;SDS011;11840;45.414;12.372;2024-02-15T12:30:12;53.05;;;28.17;;
23336;SDS011;11840;45.414;12.372;2024-02-15T12:32:39;52.70;;;27.83;;
23336;SDS011;11840;45.414;12.372;2024-02-15T12:35:12;52.20;;;28.42;;
23336;SDS011;11840;45.414;12.372;2024-02-15T12:37:42;54.25;;;27.67;;
23336;SDS011;11840;45.414;12.372;2024-02-15T12:40:15;54.40;;;28.27;;
23336;SDS011;11840;45.414;12.372;2024-02-15T12:42:43;57.33;;;28.98;;
23336;SDS011;11840;45.414;12.372;2024-02-15T12:45:16;60.05;;;29.00;;
23336;SDS011;11840;45.414;12.372;2024-02-15T12:47:49;55.72;;;28.02;;
23336;SDS011;11840;45.414;12.372;2024-02-15T12:50:16;49.42;;;27.35;;
23336;SDS011;11840;45.414;12.372;2024-02-15T12:52:44;56.10;;;28.60;;
23336;SDS011;11840;45.414;12.372;2024-02-15T12:57:41;53.40;;;28.85;;
23336;SDS011;11840;45.414;12.372;2024-02-15T13:00:08;59.15;;;26.80;;
23336;SDS011;11840;45.414;12.372;2024-02-15T13:02:38;53.95;;;27.02;;
23336;SDS011;11840;45.414;12.372;2024-02-15T13:05:05;51.55;;;26.92;;
23336;SDS011;11840;45.414;12.372;2024-02-15T13:07:34;47.58;;;26.30;;
23336;SDS011;11840;45.414;12.372;2024-02-15T13:10:00;76.43;;;27.65;;
23336;SDS011;11840;45.414;12.372;2024-02-15T13:12:26;53.58;;;26.58;;
23336;SDS011;11840;45.414;12.372;2024-02-15T13:14:54;56.22;;;26.95;;
23336;SDS011;11840;45.414;12.372;2024-02-15T13:17:20;50.80;;;27.30;;
23336;SDS011;11840;45.414;12.372;2024-02-15T13:19:47;51.05;;;28.30;;
23336;SDS011;11840;45.414;12.372;2024-02-15T13:22:15;48.03;;;26.27;;
23336;SDS011;11840;45.414;12.372;2024-02-15T13:24:47;54.92;;;27.20;;
23336;SDS011;11840;45.414;12.372;2024-02-15T13:27:13;53.30;;;27.45;;
23336;SDS011;11840;45.414;12.372;2024-02-15T13:29:40;51.08;;;26.88;;
23336;SDS011;11840;45.414;12.372;2024-02-15T13:32:06;50.13;;;27.30;;
23336;SDS011;11840;45.414;12.372;2024-02-15T13:34:33;55.33;;;28.50;;
23336;SDS011;11840;45.414;12.372;2024-02-15T13:36:59;56.15;;;29.75;;
23336;SDS011;11840;45.414;12.372;2024-02-15T13:39:27;52.33;;;27.60;;
23336;SDS011;11840;45.414;12.372;2024-02-15T13:42:01;51.47;;;27.30;;
23336;SDS011;11840;45.414;12.372;2024-02-15T13:44:27;55.63;;;27.30;;
23336;SDS011;11840;45.414;12.372;2024-02-15T13:46:57;55.20;;;27.70;;
23336;SDS011;11840;45.414;12.372;2024-02-15T13:49:23;51.78;;;27.70;;
23336;SDS011;11840;45.414;12.372;2024-02-15T13:51:50;49.63;;;27.58;;
23336;SDS011;11840;45.414;12.372;2024-02-15T13:54:17;55.55;;;29.00;;
23336;SDS011;11840;45.414;12.372;2024-02-15T13:56:43;51.28;;;29.20;;
23336;SDS011;11840;45.414;12.372;2024-02-15T13:59:09;57.50;;;29.70;;
23336;SDS011;11840;45.414;12.372;2024-02-15T14:01:36;51.97;;;28.58;;
23336;SDS011;11840;45.414;12.372;2024-02-15T14:04:08;52.50;;;29.95;;
23336;SDS011;11840;45.414;12.372;2024-02-15T14:06:35;46.65;;;27.13;;
23336;SDS011;11840;45.414;12.372;2024-02-15T14:09:02;51.15;;;27.67;;
23336;SDS011;11840;45.414;12.372;2024-02-15T14:11:28;47.20;;;26.23;;
23336;SDS011;11840;45.414;12.372;2024-02-15T14:13:54;45.00;;;25.42;;
23336;SDS011;11840;45.414;12.372;2024-02-15T14:16:24;44.85;;;25.42;;
23336;SDS011;11840;45.414;12.372;2024-02-15T14:18:50;44.50;;;24.85;;
23336;SDS011;11840;45.414;12.372;2024-02-15T14:21:17;40.70;;;24.55;;
23336;SDS011;11840;45.414;12.372;2024-02-15T14:23:44;45.10;;;25.33;;
23336;SDS011;11840;45.414;12.372;2024-02-15T14:26:10;46.67;;;26.48;;
23336;SDS011;11840;45.414;12.372;2024-02-15T14:28:36;41.47;;;25.02;;
23336;SDS011;11840;45.414;12.372;2024-02-15T14:31:04;44.90;;;26.08;;
23336;SDS011;11840;45.414;12.372;2024-02-15T14:33:48;47.55;;;27.35;;
23336;SDS011;11840;45.414;12.372;2024-02-15T14:36:16;50.20;;;27.60;;
23336;SDS011;11840;45.414;12.372;2024-02-15T14:38:43;54.40;;;29.02;;
23336;SDS011;11840;45.414;12.372;2024-02-15T14:41:09;50.33;;;27.50;;
23336;SDS011;11840;45.414;12.372;2024-02-15T14:43:36;45.53;;;26.90;;
23336;SDS011;11840;45.414;12.372;2024-02-15T14:46:02;44.83;;;27.13;;
23336;SDS011;11840;45.414;12.372;2024-02-15T14:48:31;47.40;;;26.13;;
23336;SDS011;11840;45.414;12.372;2024-02-15T14:50:57;47.35;;;27.63;;
23336;SDS011;11840;45.414;12.372;2024-02-15T14:53:24;44.72;;;27.08;;
23336;SDS011;11840;45.414;12.372;2024-02-15T14:55:49;52.17;;;28.85;;
23336;SDS011;11840;45.414;12.372;2024-02-15T14:58:17;45.92;;;27.58;;
23336;SDS011;11840;45.414;12.372;2024-02-15T15:00:43;46.42;;;27.92;;
23336;SDS011;11840;45.414;12.372;2024-02-15T15:03:10;47.05;;;28.50;;
23336;SDS011;11840;45.414;12.372;2024-02-15T15:05:39;44.38;;;27.33;;
23336;SDS011;11840;45.414;12.372;2024-02-15T15:08:23;47.97;;;28.55;;
23336;SDS011;11840;45.414;12.372;2024-02-15T15:11:07;49.70;;;28.98;;
23336;SDS011;11840;45.414;12.372;2024-02-15T15:13:51;49.03;;;27.88;;
23336;SDS011;11840;45.414;12.372;2024-02-15T15:16:18;53.92;;;27.98;;
23336;SDS011;11840;45.414;12.372;2024-02-15T15:18:46;52.25;;;29.10;;
23336;SDS011;11840;45.414;12.372;2024-02-15T15:21:13;44.60;;;27.80;;
23336;SDS011;11840;45.414;12.372;2024-02-15T15:23:39;45.00;;;28.23;;
23336;SDS011;11840;45.414;12.372;2024-02-15T15:26:05;43.63;;;27.45;;
23336;SDS011;11840;45.414;12.372;2024-02-15T15:28:37;47.30;;;28.83;;
23336;SDS011;11840;45.414;12.372;2024-02-15T15:31:03;49.28;;;28.48;;
23336;SDS011;11840;45.414;12.372;2024-02-15T15:33:30;44.70;;;27.90;;
23336;SDS011;11840;45.414;12.372;2024-02-15T15:35:58;53.63;;;29.00;;
23336;SDS011;11840;45.414;12.372;2024-02-15T15:38:24;46.63;;;27.88;;
23336;SDS011;11840;45.414;12.372;2024-02-15T15:40:52;49.95;;;29.38;;
23336;SDS011;11840;45.414;12.372;2024-02-15T15:43:18;51.25;;;29.58;;
23336;SDS011;11840;45.414;12.372;2024-02-15T15:45:46;46.83;;;28.10;;
23336;SDS011;11840;45.414;12.372;2024-02-15T15:48:13;50.25;;;30.58;;
23336;SDS011;11840;45.414;12.372;2024-02-15T15:50:39;47.97;;;29.05;;
23336;SDS011;11840;45.414;12.372;2024-02-15T15:53:06;61.25;;;31.48;;
23336;SDS011;11840;45.414;12.372;2024-02-15T15:55:32;51.53;;;29.50;;
23336;SDS011;11840;45.414;12.372;2024-02-15T15:57:58;52.55;;;30.30;;
23336;SDS011;11840;45.414;12.372;2024-02-15T16:00:24;57.13;;;31.48;;
23336;SDS011;11840;45.414;12.372;2024-02-15T16:02:50;51.63;;;30.40;;
23336;SDS011;11840;45.414;12.372;2024-02-15T16:05:18;60.58;;;29.83;;
23336;SDS011;11840;45.414;12.372;2024-02-15T16:07:44;61.95;;;29.20;;
23336;SDS011;11840;45.414;12.372;2024-02-15T16:10:10;69.78;;;30.17;;
23336;SDS011;11840;45.414;12.372;2024-02-15T16:12:36;86.20;;;28.10;;
23336;SDS011;11840;45.414;12.372;2024-02-15T16:15:03;54.67;;;28.85;;
23336;SDS011;11840;45.414;12.372;2024-02-15T16:17:34;54.92;;;28.10;;
23336;SDS011;11840;45.414;12.372;2024-02-15T16:20:02;54.65;;;28.05;;
23336;SDS011;11840;45.414;12.372;2024-02-15T16:22:30;77.95;;;27.27;;
23336;SDS011;11840;45.414;12.372;2024-02-15T16:24:57;84.95;;;30.77;;
23336;SDS011;11840;45.414;12.372;2024-02-15T16:27:23;60.83;;;30.23;;
23336;SDS011;11840;45.414;12.372;2024-02-15T16:29:50;69.97;;;29.80;;
23336;SDS011;11840;45.414;12.372;2024-02-15T16:32:16;54.22;;;30.55;;
23336;SDS011;11840;45.414;12.372;2024-02-15T16:34:42;72.00;;;31.42;;
23336;SDS011;11840;45.414;12.372;2024-02-15T16:37:07;49.55;;;30.20;;
23336;SDS011;11840;45.414;12.372;2024-02-15T16:39:35;67.03;;;31.38;;
23336;SDS011;11840;45.414;12.372;2024-02-15T16:42:00;66.47;;;31.48;;
23336;SDS011;11840;45.414;12.372;2024-02-15T16:44:26;64.90;;;31.20;;
23336;SDS011;11840;45.414;12.372;2024-02-15T16:46:51;71.03;;;31.60;;
23336;SDS011;11840;45.414;12.372;2024-02-15T16:49:18;69.43;;;30.80;;
23336;SDS011;11840;45.414;12.372;2024-02-15T16:51:44;63.00;;;31.25;;
23336;SDS011;11840;45.414;12.372;2024-02-15T16:54:10;58.55;;;32.83;;
23336;SDS011;11840;45.414;12.372;2024-02-15T16:56:37;61.95;;;34.08;;
23336;SDS011;11840;45.414;12.372;2024-02-15T16:59:03;65.13;;;34.08;;
23336;SDS011;11840;45.414;12.372;2024-02-15T17:01:29;65.65;;;34.50;;
23336;SDS011;11840;45.414;12.372;2024-02-15T17:03:55;68.70;;;34.30;;
23336;SDS011;11840;45.414;12.372;2024-02-15T17:06:21;59.65;;;33.88;;
23336;SDS011;11840;45.414;12.372;2024-02-15T17:08:47;63.65;;;34.75;;
23336;SDS011;11840;45.414;12.372;2024-02-15T17:11:23;69.80;;;34.88;;
23336;SDS011;11840;45.414;12.372;2024-02-15T17:13:49;57.95;;;35.53;;
23336;SDS011;11840;45.414;12.372;2024-02-15T17:16:17;63.83;;;35.25;;
23336;SDS011;11840;45.414;12.372;2024-02-15T17:18:42;54.80;;;33.10;;
23336;SDS011;11840;45.414;12.372;2024-02-15T17:21:09;60.60;;;34.58;;
23336;SDS011;11840;45.414;12.372;2024-02-15T17:23:35;58.30;;;35.08;;
23336;SDS011;11840;45.414;12.372;2024-02-15T17:26:03;56.55;;;34.75;;
23336;SDS011;11840;45.414;12.372;2024-02-15T17:28:29;57.60;;;34.13;;
23336;SDS011;11840;45.414;12.372;2024-02-15T17:30:55;58.40;;;33.70;;
23336;SDS011;11840;45.414;12.372;2024-02-15T17:33:22;53.83;;;32.92;;
23336;SDS011;11840;45.414;12.372;2024-02-15T17:35:48;58.80;;;32.95;;
23336;SDS011;11840;45.414;12.372;2024-02-15T17:38:16;59.95;;;34.60;;
23336;SDS011;11840;45.414;12.372;2024-02-15T17:40:41;59.78;;;34.05;;
23336;SDS011;11840;45.414;12.372;2024-02-15T17:43:11;56.33;;;33.35;;
23336;SDS011;11840;45.414;12.372;2024-02-15T17:45:36;54.28;;;33.33;;
23336;SDS011;11840;45.414;12.372;2024-02-15T17:48:03;52.80;;;33.17;;
23336;SDS011;11840;45.414;12.372;2024-02-15T17:50:30;56.50;;;32.38;;
23336;SDS011;11840;45.414;12.372;2024-02-15T17:52:56;77.10;;;34.80;;
23336;SDS011;11840;45.414;12.372;2024-02-15T17:55:22;77.28;;;33.63;;
23336;SDS011;11840;45.414;12.372;2024-02-15T17:57:48;63.30;;;33.30;;
23336;SDS011;11840;45.414;12.372;2024-02-15T18:00:14;59.50;;;33.85;;
23336;SDS011;11840;45.414;12.372;2024-02-15T18:02:45;57.28;;;32.65;;
23336;SDS011;11840;45.414;12.372;2024-02-15T18:05:14;59.63;;;34.20;;
23336;SDS011;11840;45.414;12.372;2024-02-15T18:07:39;58.85;;;32.17;;
23336;SDS011;11840;45.414;12.372;2024-02-15T18:10:06;70.95;;;33.92;;
23336;SDS011;11840;45.414;12.372;2024-02-15T18:12:36;58.13;;;33.35;;
23336;SDS011;11840;45.414;12.372;2024-02-15T18:15:04;59.83;;;33.38;;
23336;SDS011;11840;45.414;12.372;2024-02-15T18:17:31;57.05;;;34.10;;
23336;SDS011;11840;45.414;12.372;2024-02-15T18:19:57;56.47;;;34.00;;
23336;SDS011;11840;45.414;12.372;2024-02-15T18:22:24;61.50;;;34.10;;
23336;SDS011;11840;45.414;12.372;2024-02-15T18:24:54;55.50;;;32.88;;
23336;SDS011;11840;45.414;12.372;2024-02-15T18:27:20;60.83;;;34.78;;
23336;SDS011;11840;45.414;12.372;2024-02-15T18:29:46;62.00;;;35.35;;
23336;SDS011;11840;45.414;12.372;2024-02-15T18:32:13;62.00;;;34.40;;
23336;SDS011;11840;45.414;12.372;2024-02-15T18:34:39;59.72;;;34.00;;
23336;SDS011;11840;45.414;12.372;2024-02-15T18:37:07;59.00;;;33.45;;
23336;SDS011;11840;45.414;12.372;2024-02-15T18:39:33;60.72;;;35.15;;
23336;SDS011;11840;45.414;12.372;2024-02-15T18:42:00;58.13;;;33.95;;
23336;SDS011;11840;45.414;12.372;2024-02-15T18:44:31;60.13;;;35.10;;
23336;SDS011;11840;45.414;12.372;2024-02-15T18:46:58;63.67;;;35.33;;
23336;SDS011;11840;45.414;12.372;2024-02-15T18:49:24;57.95;;;35.00;;
23336;SDS011;11840;45.414;12.372;2024-02-15T18:51:50;61.47;;;34.28;;
23336;SDS011;11840;45.414;12.372;2024-02-15T18:54:16;64.85;;;35.90;;
23336;SDS011;11840;45.414;12.372;2024-02-15T18:56:44;67.32;;;35.78;;
23336;SDS011;11840;45.414;12.372;2024-02-15T18:59:10;55.70;;;33.40;;
23336;SDS011;11840;45.414;12.372;2024-02-15T19:01:36;54.33;;;33.40;;
23336;SDS011;11840;45.414;12.372;2024-02-15T19:04:02;80.00;;;34.55;;
23336;SDS011;11840;45.414;12.372;2024-02-15T19:06:29;63.03;;;32.97;;
23336;SDS011;11840;45.414;12.372;2024-02-15T19:09:03;73.43;;;33.50;;
23336;SDS011;11840;45.414;12.372;2024-02-15T19:11:29;101.32;;;32.55;;
23336;SDS011;11840;45.414;12.372;2024-02-15T19:13:55;66.50;;;32.70;;
23336;SDS011;11840;45.414;12.372;2024-02-15T19:16:22;68.07;;;32.00;;
23336;SDS011;11840;45.414;12.372;2024-02-15T19:18:49;53.60;;;30.85;;
23336;SDS011;11840;45.414;12.372;2024-02-15T19:21:17;53.58;;;31.65;;
23336;SDS011;11840;45.414;12.372;2024-02-15T19:23:43;67.50;;;31.65;;
23336;SDS011;11840;45.414;12.372;2024-02-15T19:26:11;55.17;;;33.05;;
23336;SDS011;11840;45.414;12.372;2024-02-15T19:28:37;72.60;;;32.22;;
23336;SDS011;11840;45.414;12.372;2024-02-15T19:31:05;61.25;;;31.40;;
23336;SDS011;11840;45.414;12.372;2024-02-15T19:33:31;52.85;;;31.80;;
23336;SDS011;11840;45.414;12.372;2024-02-15T19:35:57;58.35;;;31.67;;
23336;SDS011;11840;45.414;12.372;2024-02-15T19:38:23;50.45;;;30.13;;
23336;SDS011;11840;45.414;12.372;2024-02-15T19:40:51;56.58;;;31.33;;
23336;SDS011;11840;45.414;12.372;2024-02-15T19:43:16;63.13;;;28.67;;
23336;SDS011;11840;45.414;12.372;2024-02-15T19:45:42;54.05;;;27.95;;
23336;SDS011;11840;45.414;12.372;2024-02-15T19:48:09;70.47;;;28.65;;
23336;SDS011;11840;45.414;12.372;2024-02-15T19:50:35;56.47;;;28.70;;
23336;SDS011;11840;45.414;12.372;2024-02-15T19:53:01;50.72;;;27.67;;
23336;SDS011;11840;45.414;12.372;2024-02-15T19:55:27;75.10;;;28.60;;
23336;SDS011;11840;45.414;12.372;2024-02-15T19:57:53;64.53;;;27.40;;
23336;SDS011;11840;45.414;12.372;2024-02-15T20:00:19;49.35;;;26.92;;
23336;SDS011;11840;45.414;12.372;2024-02-15T20:02:45;52.83;;;26.40;;
23336;SDS011;11840;45.414;12.372;2024-02-15T20:05:11;43.80;;;25.20;;
23336;SDS011;11840;45.414;12.372;2024-02-15T20:07:38;51.15;;;25.27;;
23336;SDS011;11840;45.414;12.372;2024-02-15T20:10:04;77.07;;;26.48;;
23336;SDS011;11840;45.414;12.372;2024-02-15T20:12:32;70.72;;;25.30;;
23336;SDS011;11840;45.414;12.372;2024-02-15T20:14:59;53.65;;;26.92;;
23336;SDS011;11840;45.414;12.372;2024-02-15T20:17:25;62.95;;;26.52;;
23336;SDS011;11840;45.414;12.372;2024-02-15T20:19:51;51.25;;;26.35;;
23336;SDS011;11840;45.414;12.372;2024-02-15T20:22:17;46.95;;;27.40;;
23336;SDS011;11840;45.414;12.372;2024-02-15T20:24:44;49.70;;;28.00;;
23336;SDS011;11840;45.414;12.372;2024-02-15T20:27:10;45.97;;;26.35;;
23336;SDS011;11840;45.414;12.372;2024-02-15T20:29:36;47.67;;;27.27;;
23336;SDS011;11840;45.414;12.372;2024-02-15T20:32:03;48.15;;;25.83;;
23336;SDS011;11840;45.414;12.372;2024-02-15T20:34:30;67.15;;;28.60;;
23336;SDS011;11840;45.414;12.372;2024-02-15T20:36:56;56.45;;;28.20;;
23336;SDS011;11840;45.414;12.372;2024-02-15T20:39:23;52.60;;;28.13;;
23336;SDS011;11840;45.414;12.372;2024-02-15T20:41:50;57.63;;;29.58;;
23336;SDS011;11840;45.414;12.372;2024-02-15T20:44:16;68.88;;;30.38;;
23336;SDS011;11840;45.414;12.372;2024-02-15T20:46:42;93.28;;;30.73;;
23336;SDS011;11840;45.414;12.372;2024-02-15T20:49:09;66.22;;;32.72;;
23336;SDS011;11840;45.414;12.372;2024-02-15T20:51:35;52.28;;;31.02;;
23336;SDS011;11840;45.414;12.372;2024-02-15T20:54:03;60.47;;;29.50;;
23336;SDS011;11840;45.414;12.372;2024-02-15T20:56:28;59.08;;;31.25;;
23336;SDS011;11840;45.414;12.372;2024-02-15T20:58:54;69.72;;;33.00;;
23336;SDS011;11840;45.414;12.372;2024-02-15T21:01:20;55.50;;;32.83;;
23336;SDS011;11840;45.414;12.372;2024-02-15T21:03:48;81.28;;;33.75;;
23336;SDS011;11840;45.414;12.372;2024-02-15T21:06:15;61.00;;;34.53;;
23336;SDS011;11840;45.414;12.372;2024-02-15T21:08:41;81.38;;;33.08;;
23336;SDS011;11840;45.414;12.372;2024-02-15T21:11:08;79.95;;;34.50;;
23336;SDS011;11840;45.414;12.372;2024-02-15T21:13:34;59.88;;;32.70;;
23336;SDS011;11840;45.414;12.372;2024-02-15T21:16:00;58.03;;;32.92;;
23336;SDS011;11840;45.414;12.372;2024-02-15T21:18:28;56.97;;;33.88;;
23336;SDS011;11840;45.414;12.372;2024-02-15T21:20:56;62.22;;;33.72;;
23336;SDS011;11840;45.414;12.372;2024-02-15T21:23:22;55.53;;;32.70;;
23336;SDS011;11840;45.414;12.372;2024-02-15T21:25:49;60.78;;;34.13;;
23336;SDS011;11840;45.414;12.372;2024-02-15T21:28:15;59.92;;;33.95;;
23336;SDS011;11840;45.414;12.372;2024-02-15T21:30:41;63.50;;;34.53;;
23336;SDS011;11840;45.414;12.372;2024-02-15T21:33:07;81.47;;;34.83;;
23336;SDS011;11840;45.414;12.372;2024-02-15T21:35:33;71.53;;;40.13;;
23336;SDS011;11840;45.414;12.372;2024-02-15T21:38:02;76.00;;;42.83;;
23336;SDS011;11840;45.414;12.372;2024-02-15T21:40:29;74.20;;;35.40;;
23336;SDS011;11840;45.414;12.372;2024-02-15T21:42:55;65.68;;;34.67;;
23336;SDS011;11840;45.414;12.372;2024-02-15T21:45:22;64.25;;;33.65;;
23336;SDS011;11840;45.414;12.372;2024-02-15T21:47:49;70.00;;;34.33;;